sensor_id;sensor_type;location;lat;lon;timestamp;pressure;altitude;pressure_sealevel;temperature
78669;BMP280;67984;45.118;20.724;2023-07-09T00:02:02;72613.16;;;21.98
78669;BMP280;67984;45.118;20.724;2023-07-09T00:12:03;72593.38;;;21.81
78669;BMP280;67984;45.118;20.724;2023-07-09T00:22:14;72576.22;;;21.64
78669;BMP280;67984;45.118;20.724;2023-07-09T00:32:19;72559.59;;;21.48
78669;BMP280;67984;45.118;20.724;2023-07-09T00:42:25;72543.47;;;21.32
78669;BMP280;67984;45.118;20.724;2023-07-09T00:52:31;72524.72;;;21.16
78669;BMP280;67984;45.118;20.724;2023-07-09T01:02:37;72509.09;;;21.01
78669;BMP280;67984;45.118;20.724;2023-07-09T01:12:39;72494.44;;;20.86
78669;BMP280;67984;45.118;20.724;2023-07-09T01:22:40;72478.84;;;20.71
78669;BMP280;67984;45.118;20.724;2023-07-09T01:32:41;72461.09;;;20.56
78669;BMP280;67984;45.118;20.724;2023-07-09T01:42:46;72445.47;;;20.41
78669;BMP280;67984;45.118;20.724;2023-07-09T01:52:47;72430.81;;;20.26
78669;BMP280;67984;45.118;20.724;2023-07-09T02:02:50;72413.09;;;20.11
78669;BMP280;67984;45.118;20.724;2023-07-09T02:12:51;72397.97;;;19.97
78669;BMP280;67984;45.118;20.724;2023-07-09T02:22:51;72383.88;;;19.83
78669;BMP280;67984;45.118;20.724;2023-07-09T02:32:52;72369.75;;;19.69
78669;BMP280;67984;45.118;20.724;2023-07-09T02:42:54;72354.03;;;19.56
78669;BMP280;67984;45.118;20.724;2023-07-09T02:52:55;72341.94;;;19.44
78669;BMP280;67984;45.118;20.724;2023-07-09T03:02:56;72330.34;;;-89.72
78669;BMP280;67984;45.118;20.724;2023-07-09T03:12:57;72318.25;;;19.21
78669;BMP280;67984;45.118;20.724;2023-07-09T03:22:58;72307.19;;;19.10
78669;BMP280;67984;45.118;20.724;2023-07-09T03:32:58;72294.47;;;19.00
78669;BMP280;67984;45.118;20.724;2023-07-09T03:43:00;72285.91;;;18.92
78669;BMP280;67984;45.118;20.724;2023-07-09T03:53:01;72278.88;;;18.85
78669;BMP280;67984;45.118;20.724;2023-07-09T04:03:02;72272.31;;;18.78
78669;BMP280;67984;45.118;20.724;2023-07-09T04:13:02;72267.28;;;18.73
78669;BMP280;67984;45.118;20.724;2023-07-09T04:23:05;72263.75;;;18.70
78669;BMP280;67984;45.118;20.724;2023-07-09T04:33:06;72264.25;;;18.70
78669;BMP280;67984;45.118;20.724;2023-07-09T04:43:06;72274.34;;;18.80
78669;BMP280;67984;45.118;20.724;2023-07-09T04:53:07;72293.47;;;18.99
78669;BMP280;67984;45.118;20.724;2023-07-09T05:03:08;72315.22;;;19.18
78669;BMP280;67984;45.118;20.724;2023-07-09T05:13:08;72331.88;;;19.34
78669;BMP280;67984;45.118;20.724;2023-07-09T05:23:10;72350.63;;;19.50
78669;BMP280;67984;45.118;20.724;2023-07-09T05:33:10;72366.75;;;19.66
78669;BMP280;67984;45.118;20.724;2023-07-09T05:43:11;72383.88;;;19.83
78669;BMP280;67984;45.118;20.724;2023-07-09T05:53:12;72404.09;;;20.00
78669;BMP280;67984;45.118;20.724;2023-07-09T06:03:13;72422.25;;;20.18
78669;BMP280;67984;45.118;20.724;2023-07-09T06:13:14;72443.03;;;20.36
78669;BMP280;67984;45.118;20.724;2023-07-09T06:23:15;72462.19;;;20.55
78669;BMP280;67984;45.118;20.724;2023-07-09T06:33:17;72480.84;;;20.73
78669;BMP280;67984;45.118;20.724;2023-07-09T06:43:19;72503.13;;;20.92
78669;BMP280;67984;45.118;20.724;2023-07-09T06:53:20;72523.31;;;21.12
78669;BMP280;67984;45.118;20.724;2023-07-09T07:03:21;72545.50;;;21.34
78669;BMP280;67984;45.118;20.724;2023-07-09T07:13:23;72569.78;;;21.55
78669;BMP280;67984;45.118;20.724;2023-07-09T07:23:24;72593.50;;;21.78
78669;BMP280;67984;45.118;20.724;2023-07-09T07:33:25;72619.31;;;22.01
78669;BMP280;67984;45.118;20.724;2023-07-09T07:43:25;72643.03;;;22.24
78669;BMP280;67984;45.118;20.724;2023-07-09T07:53:26;72666.22;;;22.47
78669;BMP280;67984;45.118;20.724;2023-07-09T08:03:29;72693.06;;;22.71
78669;BMP280;67984;45.118;20.724;2023-07-09T08:13:34;72717.28;;;22.95
78669;BMP280;67984;45.118;20.724;2023-07-09T08:23:35;72744.66;;;23.19
78669;BMP280;67984;45.118;20.724;2023-07-09T08:33:36;72770.38;;;23.44
78669;BMP280;67984;45.118;20.724;2023-07-09T08:43:52;72797.72;;;23.68
78669;BMP280;67984;45.118;20.724;2023-07-09T08:53:58;72822.97;;;23.93
78669;BMP280;67984;45.118;20.724;2023-07-09T09:04:14;72851.84;;;24.19
78669;BMP280;67984;45.118;20.724;2023-07-09T09:14:38;72877.06;;;24.43
78669;BMP280;67984;45.118;20.724;2023-07-09T09:25:10;72905.44;;;24.69
78669;BMP280;67984;45.118;20.724;2023-07-09T09:35:14;72930.69;;;24.93
78669;BMP280;67984;45.118;20.724;2023-07-09T09:45:18;72954.91;;;25.17
78669;BMP280;67984;45.118;20.724;2023-07-09T09:55:23;72981.28;;;25.40
78669;BMP280;67984;45.118;20.724;2023-07-09T10:05:36;73006.53;;;25.65
78669;BMP280;67984;45.118;20.724;2023-07-09T10:15:56;73032.91;;;25.88
78669;BMP280;67984;45.118;20.724;2023-07-09T10:26:19;73056.63;;;26.12
78669;BMP280;67984;45.118;20.724;2023-07-09T10:46:40;73105.22;;;26.57
78669;BMP280;67984;45.118;20.724;2023-07-09T10:56:42;73127.97;;;26.79
78669;BMP280;67984;45.118;20.724;2023-07-09T11:06:48;73153.31;;;27.01
78669;BMP280;67984;45.118;20.724;2023-07-09T11:16:50;73176.06;;;27.23
78669;BMP280;67984;45.118;20.724;2023-07-09T11:26:51;73198.78;;;27.46
78669;BMP280;67984;45.118;20.724;2023-07-09T11:57:14;73267.09;;;28.10
78669;BMP280;67984;45.118;20.724;2023-07-09T12:07:15;73291.00;;;28.31
78669;BMP280;67984;45.118;20.724;2023-07-09T12:17:17;73312.72;;;28.52
78669;BMP280;67984;45.118;20.724;2023-07-09T12:27:24;73337.59;;;28.74
78669;BMP280;67984;45.118;20.724;2023-07-09T12:37:28;73358.81;;;28.94
78669;BMP280;67984;45.118;20.724;2023-07-09T12:47:31;73377.00;;;29.12
78669;BMP280;67984;45.118;20.724;2023-07-09T12:57:32;73397.84;;;29.30
78669;BMP280;67984;45.118;20.724;2023-07-09T13:07:38;73416.06;;;29.48
78669;BMP280;67984;45.118;20.724;2023-07-09T13:17:42;73433.72;;;29.65
78669;BMP280;67984;45.118;20.724;2023-07-09T13:27:42;73455.09;;;29.83
78669;BMP280;67984;45.118;20.724;2023-07-09T13:37:46;73473.28;;;30.01
78669;BMP280;67984;45.118;20.724;2023-07-09T13:47:46;73489.47;;;30.17
78669;BMP280;67984;45.118;20.724;2023-07-09T13:57:48;73507.81;;;30.32
78669;BMP280;67984;45.118;20.724;2023-07-09T14:07:50;73521.97;;;30.46
78669;BMP280;67984;45.118;20.724;2023-07-09T14:17:51;73535.09;;;30.59
78669;BMP280;67984;45.118;20.724;2023-07-09T14:27:53;73547.25;;;30.71
78669;BMP280;67984;45.118;20.724;2023-07-09T14:37:54;73561.03;;;30.82
78669;BMP280;67984;45.118;20.724;2023-07-09T14:47:55;73570.63;;;30.91
78669;BMP280;67984;45.118;20.724;2023-07-09T14:57:56;73578.19;;;30.98
78669;BMP280;67984;45.118;20.724;2023-07-09T15:08:10;73586.28;;;31.06
78669;BMP280;67984;45.118;20.724;2023-07-09T15:18:14;73592.34;;;31.12
78669;BMP280;67984;45.118;20.724;2023-07-09T15:28:16;73596.91;;;31.17
78669;BMP280;67984;45.118;20.724;2023-07-09T15:38:26;73601.47;;;31.21
78669;BMP280;67984;45.118;20.724;2023-07-09T15:48:35;73604.50;;;31.24
78669;BMP280;67984;45.118;20.724;2023-07-09T15:58:41;73607.50;;;31.27
78669;BMP280;67984;45.118;20.724;2023-07-09T16:08:43;73613.22;;;31.30
78669;BMP280;67984;45.118;20.724;2023-07-09T16:18:44;73615.75;;;31.32
78669;BMP280;67984;45.118;20.724;2023-07-09T16:28:45;73618.28;;;31.35
78669;BMP280;67984;45.118;20.724;2023-07-09T16:38:46;73620.81;;;31.37
78669;BMP280;67984;45.118;20.724;2023-07-09T16:48:47;73622.84;;;31.39
78669;BMP280;67984;45.118;20.724;2023-07-09T16:58:48;73624.88;;;31.41
78669;BMP280;67984;45.118;20.724;2023-07-09T17:08:48;73649.13;;;31.65
78669;BMP280;67984;45.118;20.724;2023-07-09T17:18:49;73668.34;;;31.84
78669;BMP280;67984;45.118;20.724;2023-07-09T17:28:50;73693.75;;;32.06
78669;BMP280;67984;45.118;20.724;2023-07-09T17:38:51;73700.34;;;32.12
78669;BMP280;67984;45.118;20.724;2023-07-09T17:48:51;73694.78;;;32.07
78669;BMP280;67984;45.118;20.724;2023-07-09T17:58:52;73681.50;;;31.97
78669;BMP280;67984;45.118;20.724;2023-07-09T18:08:53;73667.31;;;31.83
78669;BMP280;67984;45.118;20.724;2023-07-09T18:18:53;73647.59;;;31.63
78669;BMP280;67984;45.118;20.724;2023-07-09T18:28:54;73623.34;;;31.40
78669;BMP280;67984;45.118;20.724;2023-07-09T18:38:56;73593.38;;;31.13
78669;BMP280;67984;45.118;20.724;2023-07-09T18:48:57;73566.09;;;30.86
78669;BMP280;67984;45.118;20.724;2023-07-09T18:58:58;73536.13;;;30.60
78669;BMP280;67984;45.118;20.724;2023-07-09T19:08:58;73508.31;;;30.33
78669;BMP280;67984;45.118;20.724;2023-07-09T19:18:59;73477.84;;;30.05
78669;BMP280;67984;45.118;20.724;2023-07-09T19:29:00;73449.56;;;29.78
78669;BMP280;67984;45.118;20.724;2023-07-09T19:39:02;73417.06;;;29.49
78669;BMP280;67984;45.118;20.724;2023-07-09T19:49:04;73387.75;;;29.20
78669;BMP280;67984;45.118;20.724;2023-07-09T19:59:09;73356.31;;;28.92
78669;BMP280;67984;45.118;20.724;2023-07-09T20:09:14;73328.00;;;28.64
78669;BMP280;67984;45.118;20.724;2023-07-09T20:19:15;73297.56;;;28.37
78669;BMP280;67984;45.118;20.724;2023-07-09T20:29:17;73270.25;;;28.10
78669;BMP280;67984;45.118;20.724;2023-07-09T20:39:21;73241.34;;;27.85
78669;BMP280;67984;45.118;20.724;2023-07-09T20:49:29;73215.59;;;27.59
78669;BMP280;67984;45.118;20.724;2023-07-09T20:59:41;73187.66;;;27.35
78669;BMP280;67984;45.118;20.724;2023-07-09T21:09:41;73162.91;;;27.10
78669;BMP280;67984;45.118;20.724;2023-07-09T21:19:43;73139.19;;;26.87
78669;BMP280;67984;45.118;20.724;2023-07-09T21:29:43;73112.81;;;26.64
78669;BMP280;67984;45.118;20.724;2023-07-09T21:39:44;73090.09;;;26.42
78669;BMP280;67984;45.118;20.724;2023-07-09T21:49:45;73065.72;;;26.21
78669;BMP280;67984;45.118;20.724;2023-07-09T21:59:46;73044.00;;;25.99
78669;BMP280;67984;45.118;20.724;2023-07-09T22:09:48;73022.28;;;25.78
78669;BMP280;67984;45.118;20.724;2023-07-09T22:19:48;72997.94;;;25.57
78669;BMP280;67984;45.118;20.724;2023-07-09T22:29:50;72976.75;;;25.36
78669;BMP280;67984;45.118;20.724;2023-07-09T22:39:51;72956.03;;;25.16
78669;BMP280;67984;45.118;20.724;2023-07-09T22:49:51;72933.19;;;24.96
78669;BMP280;67984;45.118;20.724;2023-07-09T22:59:55;72914.03;;;24.77
78669;BMP280;67984;45.118;20.724;2023-07-09T23:09:55;72895.34;;;24.59
78669;BMP280;67984;45.118;20.724;2023-07-09T23:19:56;72874.03;;;24.41
78669;BMP280;67984;45.118;20.724;2023-07-09T23:29:57;72855.38;;;24.22
78669;BMP280;67984;45.118;20.724;2023-07-09T23:39:58;72834.56;;;24.04
78669;BMP280;67984;45.118;20.724;2023-07-09T23:49:59;72816.41;;;23.87
